Gran Canaria - Aeropuerto en Canarias

latitud = 27° 55' 4''N | longitud = 015° 23' 43''W
32 metros sobre el nivel del mar |

Fecha, hora, temperatura, viento dirección y velocidad, humedad y presión.

  • 24-02-2018 07:00:00 | 12.90°C | Oeste |11.00 km/h | 81.00% | 998.10 hPa
  • 24-02-2018 06:00:00 | 12.50°C | Oeste |8.00 km/h | 80.00% | 997.40 hPa
  • 24-02-2018 05:00:00 | 12.50°C | Oeste |9.00 km/h | 81.00% | 996.90 hPa
  • 24-02-2018 04:00:00 | 13.10°C | Noroeste |6.00 km/h | 78.00% | 996.90 hPa
  • 24-02-2018 03:00:00 | 14.60°C | Sudoeste |13.00 km/h | 71.00% | 997.20 hPa
  • 24-02-2018 02:00:00 | 13.70°C | Sudoeste |14.00 km/h | 80.00% | 997.10 hPa
  • 24-02-2018 01:00:00 | 14.00°C | Sudoeste |13.00 km/h | 79.00% | 996.80 hPa
  • 24-02-2018 00:00:00 | 13.50°C | Sudoeste |11.00 km/h | 91.00% | 996.80 hPa
  • 23-02-2018 23:00:00 | 13.10°C | Sur |12.00 km/h | 90.00% | 997.00 hPa
  • 23-02-2018 22:00:00 | 13.60°C | Sur |9.00 km/h | 91.00% | 996.80 hPa
  • 23-02-2018 21:00:00 | 14.50°C | Sur |22.00 km/h | 90.00% | 996.90 hPa
  • 23-02-2018 20:00:00 | 14.30°C | Sudoeste |6.00 km/h | 93.00% | 996.10 hPa
  • 23-02-2018 19:00:00 | 14.60°C | Oeste |10.00 km/h | 89.00% | 996.20 hPa
  • 23-02-2018 18:00:00 | 15.00°C | Sur |22.00 km/h | 85.00% | 995.90 hPa
  • 23-02-2018 17:00:00 | 15.50°C | Sur |17.00 km/h | 83.00% | 995.50 hPa
  • 23-02-2018 16:00:00 | 14.20°C | Sur |13.00 km/h | 91.00% | 996.00 hPa
  • 23-02-2018 15:00:00 | 15.80°C | Sur |23.00 km/h | 75.00% | 996.00 hPa
  • 23-02-2018 14:00:00 | 15.80°C | Sur |32.00 km/h | 85.00% | 996.50 hPa
  • 23-02-2018 13:00:00 | 16.10°C | Sur |29.00 km/h | 77.00% | 997.60 hPa
  • 23-02-2018 12:00:00 | 17.00°C | Sur |31.00 km/h | 76.00% | 997.80 hPa
  • 23-02-2018 11:00:00 | 15.30°C | Sur |13.00 km/h | 88.00% | 998.50 hPa
  • 23-02-2018 10:00:00 | 16.50°C | Sur |16.00 km/h | 82.00% | 998.70 hPa
  • 23-02-2018 09:00:00 | 15.50°C | Sudoeste |9.00 km/h | 81.00% | 998.80 hPa
  • 23-02-2018 08:00:00 | 14.80°C | Sur |9.00 km/h | 86.00% | 998.30 hPa